createdAt,value
2023-02-21T00:00:01.533Z,6.25
2023-02-21T00:02:57.534Z,6.23
2023-02-21T00:05:42.963Z,6.21
2023-02-21T00:08:28.440Z,6.24
2023-02-21T00:11:15.519Z,6.23
2023-02-21T00:14:01.136Z,6.24
2023-02-21T00:16:46.223Z,6.26
2023-02-21T00:19:31.384Z,6.28
2023-02-21T00:22:16.652Z,6.23
2023-02-21T00:25:02.014Z,6.23
2023-02-21T00:27:48.675Z,6.26
2023-02-21T00:30:34.364Z,6.24
2023-02-21T00:33:19.927Z,6.27
2023-02-21T00:36:05.793Z,6.26
2023-02-21T00:38:51.742Z,6.24
2023-02-21T00:41:36.995Z,6.22
2023-02-21T00:44:23.774Z,6.23
2023-02-21T00:47:09.548Z,6.21
2023-02-21T00:49:54.912Z,6.25
2023-02-21T00:52:41.041Z,6.23
2023-02-21T00:55:26.318Z,6.21
2023-02-21T00:58:11.958Z,6.20
2023-02-21T01:00:59.067Z,6.23
2023-02-21T01:03:44.867Z,6.25
2023-02-21T01:06:31.357Z,6.29
2023-02-21T01:09:16.747Z,6.35
2023-02-21T01:12:02.288Z,6.55
2023-02-21T01:14:47.536Z,6.81
2023-02-21T01:17:34.446Z,6.98
2023-02-21T01:20:20.208Z,7.18
2023-02-21T01:23:05.442Z,7.35
2023-02-21T01:25:50.999Z,7.40
2023-02-21T01:28:36.170Z,7.43
2023-02-21T01:31:22.364Z,7.53
2023-02-21T01:34:09.568Z,7.60
2023-02-21T01:36:54.747Z,7.62
2023-02-21T01:39:40.073Z,7.67
2023-02-21T01:42:28.316Z,7.72
2023-02-21T01:45:53.191Z,7.76
2023-02-21T01:48:41.028Z,7.84
2023-02-21T01:51:30.629Z,7.95
2023-02-21T01:54:16.750Z,7.97
2023-02-21T01:57:02.951Z,8.06
2023-02-21T01:59:48.695Z,8.07
2023-02-21T02:02:37.619Z,8.04
2023-02-21T02:05:25.689Z,8.00
2023-02-21T02:08:13.148Z,7.99
2023-02-21T02:11:00.108Z,7.95
2023-02-21T02:13:49.061Z,7.91
2023-02-21T02:16:24.482Z,7.92
2023-02-21T02:19:03.600Z,7.96
2023-02-21T02:21:54.661Z,7.94
2023-02-21T02:24:59.189Z,7.98
2023-02-21T02:28:06.408Z,8.10
2023-02-21T02:30:59.574Z,8.21
2023-02-21T02:33:52.900Z,8.27
2023-02-21T02:36:23.674Z,8.34
2023-02-21T02:38:59.722Z,8.41
2023-02-21T02:41:33.911Z,8.48
2023-02-21T02:44:06.769Z,8.48
2023-02-21T02:46:37.316Z,8.48
2023-02-21T02:49:08.054Z,8.50
2023-02-21T02:51:36.882Z,8.52
2023-02-21T02:54:06.111Z,8.53
2023-02-21T02:56:35.261Z,8.52
2023-02-21T02:59:05.915Z,8.46
2023-02-21T03:02:10.408Z,8.43
2023-02-21T03:05:22.179Z,8.42
2023-02-21T03:07:59.819Z,8.40
2023-02-21T03:10:38.830Z,8.37
2023-02-21T03:13:15.235Z,8.35
2023-02-21T03:15:49.667Z,8.38
2023-02-21T03:18:23.528Z,8.41
2023-02-21T03:20:54.040Z,8.41
2023-02-21T03:23:23.915Z,8.44
2023-02-21T03:25:52.313Z,8.43
2023-02-21T03:28:20.363Z,8.42
2023-02-21T03:30:51.683Z,8.46
2023-02-21T03:33:18.819Z,8.51
2023-02-21T03:35:45.782Z,8.57
2023-02-21T03:38:13.680Z,8.63
2023-02-21T03:40:42.672Z,8.73
2023-02-21T03:43:09.747Z,8.77
2023-02-21T03:45:49.234Z,8.81
2023-02-21T03:48:30.143Z,8.82
2023-02-21T03:51:05.251Z,8.87
2023-02-21T03:53:36.380Z,8.91
2023-02-21T03:56:06.126Z,8.92
2023-02-21T03:58:47.967Z,8.95
2023-02-21T04:01:16.174Z,8.94
2023-02-21T04:03:43.881Z,8.97
2023-02-21T04:06:10.929Z,8.98
2023-02-21T04:08:38.247Z,8.99
2023-02-21T04:11:06.919Z,8.99
2023-02-21T04:13:35.609Z,8.93
2023-02-21T04:16:03.416Z,8.93
2023-02-21T04:18:32.347Z,9.00
2023-02-21T04:21:01.362Z,9.02
2023-02-21T04:23:28.885Z,8.99
2023-02-21T04:25:56.083Z,9.02
2023-02-21T04:28:31.683Z,9.02
2023-02-21T04:30:59.146Z,9.00
2023-02-21T04:33:26.775Z,9.00
2023-02-21T04:35:53.734Z,9.01
2023-02-21T04:38:31.328Z,8.98
2023-02-21T04:40:58.231Z,8.98
2023-02-21T04:43:25.303Z,8.99
2023-02-21T04:45:53.618Z,8.94
2023-02-21T04:48:20.756Z,8.92
2023-02-21T04:50:47.981Z,8.94
2023-02-21T04:53:15.080Z,8.95
2023-02-21T04:55:42.041Z,8.99
2023-02-21T04:58:09.101Z,9.03
2023-02-21T05:00:36.039Z,9.05
2023-02-21T05:03:04.416Z,9.07
2023-02-21T05:05:31.342Z,9.05
2023-02-21T05:08:00.342Z,9.06
2023-02-21T05:10:43.471Z,9.04
2023-02-21T05:13:11.869Z,9.10
2023-02-21T05:15:38.781Z,9.11
2023-02-21T05:18:08.528Z,9.17
2023-02-21T05:20:35.440Z,9.25
2023-02-21T05:23:13.396Z,9.29
2023-02-21T05:25:40.898Z,9.36
2023-02-21T05:28:07.791Z,9.44
2023-02-21T05:30:34.895Z,9.52
2023-02-21T05:33:05.331Z,9.58
2023-02-21T05:35:33.599Z,9.61
2023-02-21T05:38:00.546Z,9.68
2023-02-21T05:40:27.456Z,9.70
2023-02-21T05:42:57.667Z,9.84
2023-02-21T05:45:27.067Z,9.96
2023-02-21T05:47:58.584Z,10.05
2023-02-21T05:50:25.553Z,10.14
2023-02-21T05:52:53.969Z,10.21
2023-02-21T05:55:20.945Z,10.31
2023-02-21T05:57:48.367Z,10.43
2023-02-21T06:00:17.500Z,10.49
2023-02-21T06:02:44.418Z,10.51
2023-02-21T06:05:11.600Z,10.58
2023-02-21T06:07:38.567Z,10.63
2023-02-21T06:10:07.118Z,10.72
2023-02-21T06:12:34.251Z,10.72
2023-02-21T06:15:01.371Z,10.79
2023-02-21T06:17:31.299Z,10.81
2023-02-21T06:19:58.223Z,10.85
2023-02-21T06:22:25.157Z,10.89
2023-02-21T06:24:54.731Z,10.94
2023-02-21T06:27:24.735Z,11.01
2023-02-21T06:29:51.641Z,11.13
2023-02-21T06:32:18.625Z,11.20
2023-02-21T06:34:45.741Z,11.28
2023-02-21T06:37:12.675Z,11.33
2023-02-21T06:39:40.359Z,11.34
2023-02-21T06:42:07.601Z,11.31
2023-02-21T06:44:35.912Z,11.32
2023-02-21T06:47:02.875Z,11.36
2023-02-21T06:49:29.818Z,11.39
2023-02-21T06:51:56.747Z,11.46
2023-02-21T06:54:23.733Z,11.67
2023-02-21T06:56:52.906Z,12.12
2023-02-21T06:59:19.805Z,12.38
2023-02-21T07:01:48.179Z,12.59
2023-02-21T07:04:15.249Z,12.85
2023-02-21T07:06:42.227Z,12.96
2023-02-21T07:09:09.239Z,13.10
2023-02-21T07:11:36.289Z,13.48
2023-02-21T07:14:03.885Z,14.14
2023-02-21T07:16:30.807Z,14.80
2023-02-21T07:18:59.099Z,15.26
2023-02-21T07:21:28.811Z,15.53
2023-02-21T07:23:56.260Z,15.54
2023-02-21T07:26:23.298Z,15.86
2023-02-21T07:28:50.545Z,16.28
2023-02-21T07:31:19.470Z,16.70
2023-02-21T07:33:46.890Z,17.02
2023-02-21T07:36:15.674Z,17.27
2023-02-21T07:38:42.607Z,17.17
2023-02-21T07:41:09.795Z,17.02
2023-02-21T07:43:36.768Z,16.94
2023-02-21T07:46:04.058Z,16.74
2023-02-21T07:48:30.989Z,16.52
2023-02-21T07:50:57.940Z,16.49
2023-02-21T07:53:26.230Z,16.52
2023-02-21T07:55:53.192Z,16.33
2023-02-21T07:58:21.441Z,16.33
2023-02-21T08:00:48.514Z,16.31
2023-02-21T08:03:15.684Z,16.47
2023-02-21T08:05:42.612Z,16.59
2023-02-21T08:08:09.898Z,16.74
2023-02-21T08:10:38.484Z,16.94
2023-02-21T08:13:05.863Z,17.15
2023-02-21T08:15:32.835Z,17.17
2023-02-21T08:17:59.901Z,17.06
2023-02-21T08:20:27.051Z,17.17
2023-02-21T08:22:53.934Z,17.35
2023-02-21T08:25:20.882Z,17.35
2023-02-21T08:27:53.647Z,17.36
2023-02-21T08:30:21.269Z,17.40
2023-02-21T08:32:48.636Z,17.32
2023-02-21T08:35:16.249Z,17.31
2023-02-21T08:37:45.363Z,17.65
2023-02-21T08:40:13.995Z,17.56
2023-02-21T08:42:41.748Z,17.56
2023-02-21T08:45:16.071Z,17.54
2023-02-21T08:47:43.071Z,17.49
2023-02-21T08:50:10.102Z,17.60
2023-02-21T08:52:37.124Z,17.99
2023-02-21T08:55:04.229Z,18.27
2023-02-21T08:57:31.393Z,18.59
2023-02-21T08:59:58.297Z,19.02
2023-02-21T09:02:27.020Z,19.38
2023-02-21T09:04:54.593Z,19.38
2023-02-21T09:07:23.148Z,19.18
2023-02-21T09:09:50.138Z,19.17
2023-02-21T09:12:17.327Z,19.25
2023-02-21T09:14:44.738Z,19.29
2023-02-21T09:17:13.632Z,19.37
2023-02-21T09:19:42.110Z,19.57
2023-02-21T09:22:10.245Z,19.86
2023-02-21T09:24:38.299Z,20.21
2023-02-21T09:27:06.133Z,20.34
2023-02-21T09:29:45.550Z,20.51
2023-02-21T09:32:14.619Z,20.82
2023-02-21T09:34:42.984Z,21.10
2023-02-21T09:37:09.932Z,21.26
2023-02-21T09:39:37.533Z,21.04
2023-02-21T09:42:05.013Z,20.70
2023-02-21T09:44:32.098Z,20.61
2023-02-21T09:47:01.610Z,20.65
2023-02-21T09:49:33.292Z,20.23
2023-02-21T09:52:02.185Z,19.78
2023-02-21T09:54:33.199Z,19.52
2023-02-21T09:57:03.591Z,19.26
2023-02-21T09:59:30.803Z,19.22
2023-02-21T10:02:16.159Z,19.32
2023-02-21T10:04:58.152Z,19.48
2023-02-21T10:07:37.324Z,19.96
2023-02-21T10:10:09.572Z,20.10
2023-02-21T10:12:43.829Z,19.97
2023-02-21T10:15:29.480Z,19.99
2023-02-21T10:18:00.949Z,19.90
2023-02-21T10:20:32.996Z,19.81
2023-02-21T10:23:03.725Z,19.54
2023-02-21T10:25:32.812Z,19.40
2023-02-21T10:28:00.713Z,19.51
2023-02-21T10:30:32.814Z,19.57
2023-02-21T10:32:59.838Z,19.59
2023-02-21T10:35:26.776Z,19.62
2023-02-21T10:37:57.911Z,19.71
2023-02-21T10:40:34.656Z,19.89
2023-02-21T10:43:08.194Z,20.15
2023-02-21T10:45:40.691Z,20.48
2023-02-21T10:48:09.619Z,20.73
2023-02-21T10:50:43.879Z,20.77
2023-02-21T10:53:24.994Z,20.87
2023-02-21T10:56:15.301Z,21.07
2023-02-21T10:58:45.995Z,21.49
2023-02-21T11:01:17.181Z,21.92
2023-02-21T11:03:47.028Z,22.33
2023-02-21T11:06:26.474Z,22.81
2023-02-21T11:08:54.702Z,22.84
2023-02-21T11:11:44.126Z,22.54
2023-02-21T11:14:24.312Z,22.39
2023-02-21T11:17:15.379Z,22.48
2023-02-21T11:19:45.394Z,22.27
2023-02-21T11:22:12.736Z,22.04
2023-02-21T11:24:49.838Z,21.70
2023-02-21T11:27:18.567Z,21.51
2023-02-21T11:29:48.922Z,21.19
2023-02-21T11:32:25.176Z,21.22
2023-02-21T11:35:02.260Z,21.33
2023-02-21T11:37:29.616Z,21.25
2023-02-21T11:39:56.516Z,21.23
2023-02-21T11:42:29.028Z,21.44
2023-02-21T11:45:22.059Z,21.56
2023-02-21T11:47:57.594Z,21.23
2023-02-21T11:50:28.269Z,20.98
2023-02-21T11:53:06.028Z,20.71
2023-02-21T11:55:35.120Z,20.43
2023-02-21T11:58:15.802Z,20.24
2023-02-21T12:01:01.779Z,20.07
2023-02-21T12:03:54.411Z,20.01
2023-02-21T12:06:29.106Z,20.02
2023-02-21T12:08:59.896Z,19.89
2023-02-21T12:11:41.620Z,19.82
2023-02-21T12:14:19.875Z,19.89
2023-02-21T12:16:59.756Z,20.11
2023-02-21T12:19:45.040Z,20.44
2023-02-21T12:22:23.696Z,20.69
2023-02-21T12:25:00.472Z,20.63
2023-02-21T12:27:38.158Z,20.18
2023-02-21T12:30:27.051Z,19.93
2023-02-21T12:33:03.588Z,19.73
2023-02-21T12:35:52.167Z,19.54
2023-02-21T12:38:28.353Z,19.29
2023-02-21T12:41:07.241Z,19.20
2023-02-21T12:43:48.780Z,19.17
2023-02-21T12:46:23.024Z,19.13
2023-02-21T12:48:56.052Z,19.28
2023-02-21T12:51:28.458Z,19.64
2023-02-21T12:54:01.473Z,19.99
2023-02-21T12:56:33.279Z,20.10
2023-02-21T12:59:06.369Z,20.34
2023-02-21T13:01:39.831Z,20.48
2023-02-21T13:04:22.291Z,20.61
2023-02-21T13:06:53.637Z,20.58
2023-02-21T13:09:28.478Z,20.48
2023-02-21T13:12:01.843Z,20.41
2023-02-21T13:14:33.922Z,20.52
2023-02-21T13:17:02.533Z,20.55
2023-02-21T13:19:38.233Z,20.75
2023-02-21T13:22:57.160Z,20.90
2023-02-21T13:25:49.804Z,20.85
2023-02-21T13:28:21.060Z,20.59
2023-02-21T13:30:52.020Z,20.33
2023-02-21T13:33:27.916Z,20.28
2023-02-21T13:35:58.799Z,20.37
2023-02-21T13:38:28.811Z,20.40
2023-02-21T13:41:05.234Z,20.42
2023-02-21T13:43:35.041Z,20.44
2023-02-21T13:46:34.997Z,20.46
2023-02-21T13:49:31.613Z,20.43
2023-02-21T13:52:23.483Z,20.24
2023-02-21T13:55:27.141Z,20.18
2023-02-21T13:58:30.106Z,20.12
2023-02-21T14:01:13.075Z,20.03
2023-02-21T14:03:40.393Z,19.99
2023-02-21T14:06:28.496Z,20.04
2023-02-21T14:09:01.211Z,20.05
2023-02-21T14:11:32.151Z,20.00
2023-02-21T14:14:02.269Z,19.91
2023-02-21T14:16:33.663Z,19.87
2023-02-21T14:19:02.877Z,19.80
2023-02-21T14:21:35.786Z,19.74
2023-02-21T14:24:11.343Z,19.57
2023-02-21T14:26:44.519Z,19.58
2023-02-21T14:29:29.088Z,19.58
2023-02-21T14:31:59.036Z,19.54
2023-02-21T14:34:35.281Z,19.50
2023-02-21T14:37:06.119Z,19.41
2023-02-21T14:39:41.373Z,19.29
2023-02-21T14:42:34.080Z,19.20
2023-02-21T14:45:18.662Z,19.10
2023-02-21T14:48:01.590Z,19.07
2023-02-21T14:50:40.244Z,19.03
2023-02-21T14:53:47.601Z,18.94
2023-02-21T14:56:48.308Z,18.79
2023-02-21T14:59:27.338Z,18.51
2023-02-21T15:02:01.024Z,18.31
2023-02-21T15:04:36.219Z,18.13
2023-02-21T15:07:16.613Z,17.95
2023-02-21T15:09:43.645Z,17.79
2023-02-21T15:12:15.719Z,17.72
2023-02-21T15:14:49.926Z,17.66
2023-02-21T15:17:20.130Z,17.60
2023-02-21T15:19:47.104Z,17.54
2023-02-21T15:22:16.931Z,17.42
2023-02-21T15:25:11.299Z,17.29
2023-02-21T15:27:56.881Z,17.18
2023-02-21T15:30:24.489Z,17.10
2023-02-21T15:32:58.136Z,16.95
2023-02-21T15:35:30.570Z,16.89
2023-02-21T15:37:58.512Z,16.81
2023-02-21T15:40:27.853Z,16.78
2023-02-21T15:42:59.444Z,16.71
2023-02-21T15:45:30.108Z,16.68
2023-02-21T15:47:59.521Z,16.64
2023-02-21T15:50:31.855Z,16.57
2023-02-21T15:53:12.230Z,16.47
2023-02-21T15:55:39.936Z,16.37
2023-02-21T15:58:16.988Z,16.31
2023-02-21T16:00:46.370Z,16.27
2023-02-21T16:03:31.762Z,16.21
2023-02-21T16:06:22.563Z,16.10
2023-02-21T16:08:59.098Z,16.01
2023-02-21T16:11:38.384Z,15.98
2023-02-21T16:14:13.674Z,15.91
2023-02-21T16:16:40.830Z,15.89
2023-02-21T16:19:09.157Z,15.86
2023-02-21T16:21:36.407Z,15.80
2023-02-21T16:24:35.622Z,15.74
2023-02-21T16:27:05.061Z,15.71
2023-02-21T16:29:33.437Z,15.67
2023-02-21T16:32:03.863Z,15.59
2023-02-21T16:34:32.665Z,15.55
2023-02-21T16:37:04.834Z,15.52
2023-02-21T16:39:32.072Z,15.48
2023-02-21T16:41:58.977Z,15.45
2023-02-21T16:44:26.131Z,15.44
2023-02-21T16:46:55.448Z,15.42
2023-02-21T16:49:22.792Z,15.37
2023-02-21T16:51:49.897Z,15.36
2023-02-21T16:54:17.176Z,15.34
2023-02-21T16:56:47.182Z,15.32
2023-02-21T16:59:17.019Z,15.31
2023-02-21T17:01:44.140Z,15.24
2023-02-21T17:04:17.184Z,15.20
2023-02-21T17:06:46.586Z,15.11
2023-02-21T17:09:19.189Z,15.02
2023-02-21T17:11:46.314Z,14.92
2023-02-21T17:14:13.618Z,14.80
2023-02-21T17:16:44.829Z,14.75
2023-02-21T17:19:14.345Z,14.70
2023-02-21T17:21:43.406Z,14.59
2023-02-21T17:24:12.002Z,14.55
2023-02-21T17:26:39.226Z,14.48
2023-02-21T17:29:06.964Z,14.40
2023-02-21T17:31:34.044Z,14.34
2023-02-21T17:34:01.058Z,14.28
2023-02-21T17:36:29.256Z,14.25
2023-02-21T17:38:59.024Z,14.20
2023-02-21T17:41:27.574Z,14.18
2023-02-21T17:43:54.666Z,14.15
2023-02-21T17:46:21.872Z,14.10
2023-02-21T17:48:49.088Z,14.12
2023-02-21T17:51:22.021Z,14.12
2023-02-21T17:53:49.045Z,14.13
2023-02-21T17:56:24.399Z,14.10
2023-02-21T17:58:51.578Z,14.11
2023-02-21T18:01:19.767Z,14.09
2023-02-21T18:03:47.793Z,14.07
2023-02-21T18:06:18.330Z,14.10
2023-02-21T18:08:48.866Z,14.10
2023-02-21T18:11:18.246Z,14.08
2023-02-21T18:13:46.738Z,14.10
2023-02-21T18:16:14.316Z,14.09
2023-02-21T18:18:41.583Z,14.08
2023-02-21T18:21:09.637Z,14.10
2023-02-21T18:23:37.959Z,14.12
2023-02-21T18:26:05.405Z,14.13
2023-02-21T18:28:32.424Z,14.17
2023-02-21T18:31:00.920Z,14.18
2023-02-21T18:33:27.958Z,14.13
2023-02-21T18:35:56.231Z,14.10
2023-02-21T18:38:24.075Z,14.08
2023-02-21T18:40:51.120Z,14.05
2023-02-21T18:43:20.409Z,14.07
2023-02-21T18:45:48.832Z,14.06
2023-02-21T18:48:17.747Z,14.04
2023-02-21T18:50:45.012Z,14.04
2023-02-21T18:53:12.284Z,14.02
2023-02-21T18:55:39.829Z,13.99
2023-02-21T18:58:08.408Z,13.99
2023-02-21T19:00:36.671Z,13.95
2023-02-21T19:03:06.242Z,13.94
2023-02-21T19:05:35.379Z,13.92
2023-02-21T19:08:02.328Z,13.91
2023-02-21T19:10:31.111Z,13.91
2023-02-21T19:12:59.521Z,13.88
2023-02-21T19:15:26.636Z,13.89
2023-02-21T19:17:53.662Z,13.86
2023-02-21T19:20:20.910Z,13.84
2023-02-21T19:22:49.605Z,13.79
2023-02-21T19:25:17.481Z,13.77
2023-02-21T19:27:45.103Z,13.74
2023-02-21T19:30:13.213Z,13.71
2023-02-21T19:32:40.236Z,13.70
2023-02-21T19:35:08.418Z,13.69
2023-02-21T19:37:36.248Z,13.68
2023-02-21T19:40:07.990Z,13.68
2023-02-21T19:42:35.396Z,13.71
2023-02-21T19:45:02.374Z,13.76
2023-02-21T19:47:29.738Z,13.73
2023-02-21T19:49:56.816Z,13.72
2023-02-21T19:52:23.809Z,13.71
2023-02-21T19:54:50.705Z,13.74
2023-02-21T19:57:18.997Z,13.74
2023-02-21T19:59:46.005Z,13.74
2023-02-21T20:02:15.794Z,13.74
2023-02-21T20:04:47.568Z,13.74
2023-02-21T20:07:14.905Z,13.75
2023-02-21T20:09:42.124Z,13.75
2023-02-21T20:12:09.164Z,13.75
2023-02-21T20:14:37.856Z,13.75
2023-02-21T20:17:04.886Z,13.74
2023-02-21T20:19:31.935Z,13.72
2023-02-21T20:21:58.878Z,13.73
2023-02-21T20:24:25.797Z,13.74
2023-02-21T20:26:54.033Z,13.70
2023-02-21T20:29:22.122Z,13.66
2023-02-21T20:31:50.796Z,13.63
2023-02-21T20:34:17.797Z,13.60
2023-02-21T20:36:45.996Z,13.57
2023-02-21T20:39:22.054Z,13.55
2023-02-21T20:41:49.186Z,13.52
2023-02-21T20:44:16.547Z,13.51
2023-02-21T20:46:43.667Z,13.51
2023-02-21T20:49:14.237Z,13.49
2023-02-21T20:51:43.387Z,13.50
2023-02-21T20:54:12.815Z,13.49
2023-02-21T20:56:41.709Z,13.47
2023-02-21T20:59:15.832Z,13.45
2023-02-21T21:01:48.128Z,13.45
2023-02-21T21:04:18.682Z,13.46
2023-02-21T21:06:46.559Z,13.49
2023-02-21T21:09:17.811Z,13.52
2023-02-21T21:11:45.642Z,13.53
2023-02-21T21:14:16.389Z,13.53
2023-02-21T21:16:45.804Z,13.52
2023-02-21T21:19:12.746Z,13.51
2023-02-21T21:21:41.060Z,13.49
2023-02-21T21:24:08.185Z,13.47
2023-02-21T21:26:35.116Z,13.47
2023-02-21T21:29:02.040Z,13.44
2023-02-21T21:31:29.110Z,13.44
2023-02-21T21:33:56.503Z,13.43
2023-02-21T21:36:24.515Z,13.42
2023-02-21T21:38:52.828Z,13.40
2023-02-21T21:41:19.744Z,13.38
2023-02-21T21:43:46.792Z,13.34
2023-02-21T21:46:14.415Z,13.31
2023-02-21T21:48:43.222Z,13.26
2023-02-21T21:51:10.982Z,13.21
2023-02-21T21:53:41.584Z,13.16
2023-02-21T21:56:11.373Z,13.09
2023-02-21T21:58:38.401Z,13.07
2023-02-21T22:01:05.576Z,13.04
2023-02-21T22:03:32.665Z,13.05
2023-02-21T22:06:00.650Z,13.04
2023-02-21T22:08:28.719Z,13.02
2023-02-21T22:10:55.636Z,12.97
2023-02-21T22:13:29.340Z,12.95
2023-02-21T22:15:56.471Z,12.89
2023-02-21T22:18:24.091Z,12.84
2023-02-21T22:20:51.280Z,12.68
2023-02-21T22:23:24.303Z,12.62
2023-02-21T22:25:51.816Z,12.51
2023-02-21T22:28:18.841Z,12.45
2023-02-21T22:30:47.309Z,12.41
2023-02-21T22:33:18.562Z,12.41
2023-02-21T22:35:47.186Z,12.39
2023-02-21T22:38:15.808Z,12.36
2023-02-21T22:40:43.671Z,12.34
2023-02-21T22:43:10.834Z,12.28
2023-02-21T22:45:38.200Z,12.26
2023-02-21T22:48:07.719Z,12.24
2023-02-21T22:50:37.209Z,12.22
2023-02-21T22:53:09.357Z,12.13
2023-02-21T22:55:37.360Z,12.17
2023-02-21T22:58:06.669Z,12.17
2023-02-21T23:00:35.154Z,12.20
2023-02-21T23:03:12.715Z,12.21
2023-02-21T23:05:43.748Z,12.12
2023-02-21T23:08:12.902Z,12.08
2023-02-21T23:10:40.384Z,12.00
2023-02-21T23:13:09.576Z,11.98
2023-02-21T23:15:36.988Z,12.02
2023-02-21T23:18:04.462Z,12.02
2023-02-21T23:20:31.838Z,11.98
2023-02-21T23:23:01.362Z,12.01
2023-02-21T23:25:35.188Z,12.14
2023-02-21T23:28:06.483Z,12.24
2023-02-21T23:30:45.031Z,12.34
2023-02-21T23:33:16.456Z,12.37
2023-02-21T23:35:44.854Z,12.44
2023-02-21T23:38:15.872Z,12.48
2023-02-21T23:40:44.221Z,12.53
2023-02-21T23:43:12.598Z,12.56
2023-02-21T23:45:40.414Z,12.61
2023-02-21T23:48:10.225Z,12.56
2023-02-21T23:50:37.845Z,12.60
2023-02-21T23:53:06.011Z,12.64
2023-02-21T23:55:35.847Z,12.62
2023-02-21T23:58:08.866Z,12.55
